createdAt,value
2022-09-29T00:00:03.929Z,6.700000
2022-09-29T00:01:00.848Z,6.700000
2022-09-29T00:02:00.942Z,6.600000
2022-09-29T00:03:00.903Z,6.600000
2022-09-29T00:04:00.928Z,6.600000
2022-09-29T00:05:03.709Z,6.600000
2022-09-29T00:06:00.966Z,6.600000
2022-09-29T00:07:00.875Z,6.600000
2022-09-29T00:08:00.951Z,6.500000
2022-09-29T00:09:00.912Z,6.500000
2022-09-29T00:10:04.834Z,6.500000
2022-09-29T00:11:00.919Z,6.500000
2022-09-29T00:12:00.989Z,6.500000
2022-09-29T00:13:00.925Z,6.400000
2022-09-29T00:14:01.004Z,6.400000
2022-09-29T00:15:03.895Z,6.400000
2022-09-29T00:16:01.081Z,6.300000
2022-09-29T00:17:00.943Z,6.300000
2022-09-29T00:18:13.667Z,6.300000
2022-09-29T00:19:00.964Z,6.300000
2022-09-29T00:20:04.260Z,6.300000
2022-09-29T00:21:00.985Z,6.300000
2022-09-29T00:22:01.059Z,6.300000
2022-09-29T00:23:00.986Z,6.200000
2022-09-29T00:24:01.063Z,6.200000
2022-09-29T00:25:03.823Z,6.200000
2022-09-29T00:26:01.080Z,6.200000
2022-09-29T00:27:01.014Z,6.200000
2022-09-29T00:28:01.119Z,6.000000
2022-09-29T00:29:01.048Z,6.000000
2022-09-29T00:30:04.479Z,6.000000
2022-09-29T00:31:01.092Z,5.900000
2022-09-29T00:32:01.166Z,5.900000
2022-09-29T00:33:01.063Z,5.900000
2022-09-29T00:34:01.144Z,5.900000
2022-09-29T00:35:03.754Z,5.900000
2022-09-29T00:36:01.164Z,5.900000
2022-09-29T00:37:01.073Z,5.900000
2022-09-29T00:38:01.160Z,5.900000
2022-09-29T00:39:01.114Z,5.800000
2022-09-29T00:40:05.050Z,5.800000
2022-09-29T00:41:01.179Z,5.800000
2022-09-29T00:42:01.187Z,5.800000
2022-09-29T00:43:01.147Z,5.800000
2022-09-29T00:44:01.244Z,5.700000
2022-09-29T00:45:05.731Z,5.700000
2022-09-29T00:46:00.325Z,5.600000
2022-09-29T00:47:00.186Z,5.600000
2022-09-29T00:48:00.278Z,5.600000
2022-09-29T00:49:00.203Z,5.600000
2022-09-29T00:50:03.242Z,5.600000
2022-09-29T00:51:00.253Z,5.500000
2022-09-29T00:52:00.273Z,5.500000
2022-09-29T00:53:00.233Z,5.500000
2022-09-29T00:54:00.312Z,5.500000
2022-09-29T00:55:03.064Z,5.500000
2022-09-29T00:56:00.298Z,5.400000
2022-09-29T00:57:00.281Z,5.400000
2022-09-29T00:58:00.316Z,5.400000
2022-09-29T00:59:00.264Z,5.400000
2022-09-29T01:00:03.352Z,5.400000
2022-09-29T01:01:00.427Z,5.400000
2022-09-29T01:02:00.377Z,5.400000
2022-09-29T01:03:00.354Z,5.400000
2022-09-29T01:04:00.385Z,5.400000
2022-09-29T01:05:03.261Z,5.400000
2022-09-29T01:06:00.414Z,5.300000
2022-09-29T01:07:00.337Z,5.300000
2022-09-29T01:08:00.411Z,5.300000
2022-09-29T01:09:00.376Z,5.300000
2022-09-29T01:10:03.579Z,5.300000
2022-09-29T01:11:00.373Z,5.300000
2022-09-29T01:12:00.435Z,5.300000
2022-09-29T01:13:00.385Z,5.300000
2022-09-29T01:14:00.755Z,5.300000
2022-09-29T01:15:03.481Z,5.300000
2022-09-29T01:16:00.490Z,5.300000
2022-09-29T01:17:00.622Z,5.300000
2022-09-29T01:18:00.487Z,5.300000
2022-09-29T01:19:00.421Z,5.200000
2022-09-29T01:20:04.882Z,5.200000
2022-09-29T01:21:00.482Z,5.200000
2022-09-29T01:22:00.740Z,5.200000
2022-09-29T01:23:00.451Z,5.200000
2022-09-29T01:24:00.528Z,5.200000
2022-09-29T01:25:03.230Z,5.200000
2022-09-29T01:26:00.540Z,5.200000
2022-09-29T01:27:00.492Z,5.100000
2022-09-29T01:28:00.542Z,5.100000
2022-09-29T01:29:00.488Z,5.100000
2022-09-29T01:30:03.581Z,5.100000
2022-09-29T01:31:00.607Z,5.100000
2022-09-29T01:32:00.555Z,5.000000
2022-09-29T01:33:00.584Z,5.000000
2022-09-29T01:34:00.586Z,5.000000
2022-09-29T01:35:03.386Z,4.900000
2022-09-29T01:36:00.610Z,4.900000
2022-09-29T01:37:00.523Z,4.900000
2022-09-29T01:38:00.605Z,4.900000
2022-09-29T01:39:00.587Z,4.900000
2022-09-29T01:40:04.306Z,4.900000
2022-09-29T01:41:00.670Z,4.900000
2022-09-29T01:42:00.636Z,4.900000
2022-09-29T01:43:00.573Z,4.900000
2022-09-29T01:44:00.659Z,4.800000
2022-09-29T01:45:03.479Z,4.800000
2022-09-29T01:46:00.696Z,4.800000
2022-09-29T01:47:00.595Z,4.700000
2022-09-29T01:48:00.725Z,4.700000
2022-09-29T01:49:00.651Z,4.600000
2022-09-29T01:50:04.929Z,4.600000
2022-09-29T01:51:00.651Z,4.500000
2022-09-29T01:52:00.696Z,4.500000
2022-09-29T01:53:00.649Z,4.500000
2022-09-29T01:54:00.748Z,4.400000
2022-09-29T01:55:03.440Z,4.400000
2022-09-29T01:56:00.767Z,4.400000
2022-09-29T01:57:00.689Z,4.300000
2022-09-29T01:58:00.752Z,4.300000
2022-09-29T01:59:00.688Z,4.300000
2022-09-29T02:00:03.810Z,4.300000
2022-09-29T02:01:00.779Z,4.300000
2022-09-29T02:02:01.110Z,4.300000
2022-09-29T02:03:00.737Z,4.300000
2022-09-29T02:04:00.796Z,4.300000
2022-09-29T02:05:03.459Z,4.300000
2022-09-29T02:06:00.827Z,4.300000
2022-09-29T02:07:00.758Z,4.300000
2022-09-29T02:08:00.850Z,4.300000
2022-09-29T02:09:00.783Z,4.300000
2022-09-29T02:10:03.764Z,4.200000
2022-09-29T02:11:00.805Z,4.200000
2022-09-29T02:12:00.873Z,4.200000
2022-09-29T02:13:00.826Z,4.200000
2022-09-29T02:14:00.931Z,4.100000
2022-09-29T02:15:04.985Z,4.100000
2022-09-29T02:16:00.965Z,4.100000
2022-09-29T02:17:00.834Z,4.100000
2022-09-29T02:18:00.939Z,4.100000
2022-09-29T02:19:00.862Z,4.100000
2022-09-29T02:20:04.143Z,4.100000
2022-09-29T02:21:00.918Z,4.100000
2022-09-29T02:22:00.942Z,4.000000
2022-09-29T02:23:00.891Z,4.000000
2022-09-29T02:24:00.976Z,4.000000
2022-09-29T02:25:03.628Z,4.000000
2022-09-29T02:26:01.011Z,4.000000
2022-09-29T02:27:00.942Z,4.000000
2022-09-29T02:28:01.013Z,4.000000
2022-09-29T02:29:00.938Z,4.000000
2022-09-29T02:30:04.229Z,3.900000
2022-09-29T02:31:00.951Z,3.900000
2022-09-29T02:32:01.130Z,3.900000
2022-09-29T02:33:00.972Z,3.900000
2022-09-29T02:34:01.053Z,3.900000
2022-09-29T02:35:04.536Z,3.900000
2022-09-29T02:36:01.072Z,3.900000
2022-09-29T02:37:01.054Z,3.900000
2022-09-29T02:38:01.118Z,3.900000
2022-09-29T02:39:01.054Z,3.900000
2022-09-29T02:40:04.134Z,4.000000
2022-09-29T02:41:01.117Z,4.000000
2022-09-29T02:42:01.128Z,4.000000
2022-09-29T02:43:01.059Z,3.900000
2022-09-29T02:44:01.161Z,3.900000
2022-09-29T02:45:03.912Z,3.900000
2022-09-29T02:46:01.204Z,3.900000
2022-09-29T02:47:01.091Z,3.900000
2022-09-29T02:48:01.166Z,3.900000
2022-09-29T02:49:01.104Z,3.900000
2022-09-29T02:50:04.236Z,3.900000
2022-09-29T02:51:01.131Z,3.900000
2022-09-29T02:52:01.197Z,3.900000
2022-09-29T02:53:01.127Z,3.800000
2022-09-29T02:54:01.198Z,3.800000
2022-09-29T02:55:03.819Z,3.800000
2022-09-29T02:56:01.239Z,3.800000
2022-09-29T02:57:01.164Z,3.800000
2022-09-29T02:58:01.224Z,3.800000
2022-09-29T02:59:01.156Z,3.800000
2022-09-29T03:00:04.077Z,3.800000
2022-09-29T03:01:00.267Z,3.800000
2022-09-29T03:02:00.285Z,3.800000
2022-09-29T03:03:00.214Z,3.800000
2022-09-29T03:04:04.173Z,3.800000
2022-09-29T03:05:02.985Z,3.800000
2022-09-29T03:06:00.298Z,3.800000
2022-09-29T03:07:00.215Z,3.800000
2022-09-29T03:08:00.340Z,3.800000
2022-09-29T03:09:00.252Z,3.800000
2022-09-29T03:10:03.464Z,3.800000
2022-09-29T03:11:00.254Z,3.800000
2022-09-29T03:12:00.332Z,3.800000
2022-09-29T03:13:00.265Z,3.800000
2022-09-29T03:14:00.371Z,3.800000
2022-09-29T03:15:03.004Z,3.700000
2022-09-29T03:16:00.426Z,3.700000
2022-09-29T03:17:00.280Z,3.700000
2022-09-29T03:18:00.374Z,3.700000
2022-09-29T03:19:00.306Z,3.700000
2022-09-29T03:20:19.425Z,3.600000
2022-09-29T03:21:00.326Z,3.600000
2022-09-29T03:22:00.368Z,3.600000
2022-09-29T03:23:00.330Z,3.600000
2022-09-29T03:24:00.442Z,3.600000
2022-09-29T03:25:03.455Z,3.600000
2022-09-29T03:26:00.448Z,3.600000
2022-09-29T03:27:00.362Z,3.600000
2022-09-29T03:28:00.441Z,3.500000
2022-09-29T03:29:00.380Z,3.500000
2022-09-29T03:30:05.178Z,3.500000
2022-09-29T03:31:00.431Z,3.500000
2022-09-29T03:32:00.493Z,3.500000
2022-09-29T03:33:00.423Z,3.400000
2022-09-29T03:34:00.490Z,3.400000
2022-09-29T03:35:03.247Z,3.400000
2022-09-29T03:36:00.534Z,3.400000
2022-09-29T03:37:00.425Z,3.400000
2022-09-29T03:38:00.554Z,3.400000
2022-09-29T03:39:00.466Z,3.300000
2022-09-29T03:40:04.795Z,3.300000
2022-09-29T03:41:00.513Z,3.300000
2022-09-29T03:42:00.547Z,3.300000
2022-09-29T03:43:00.484Z,3.300000
2022-09-29T03:44:00.591Z,3.300000
2022-09-29T03:45:03.299Z,3.300000
2022-09-29T03:46:00.671Z,3.300000
2022-09-29T03:47:00.525Z,3.300000
2022-09-29T03:48:00.620Z,3.300000
2022-09-29T03:49:00.542Z,3.300000
2022-09-29T03:50:03.746Z,3.300000
2022-09-29T03:51:00.557Z,3.300000
2022-09-29T03:52:00.634Z,3.300000
2022-09-29T03:53:00.576Z,3.300000
2022-09-29T03:54:00.669Z,3.300000
2022-09-29T03:55:03.441Z,3.300000
2022-09-29T03:56:00.699Z,3.300000
2022-09-29T03:57:00.609Z,3.300000
2022-09-29T03:58:00.684Z,3.300000
2022-09-29T03:59:00.622Z,3.300000
2022-09-29T04:00:03.919Z,3.300000
2022-09-29T04:01:00.683Z,3.200000
2022-09-29T04:02:00.791Z,3.200000
2022-09-29T04:03:00.670Z,3.200000
2022-09-29T04:04:00.729Z,3.200000
2022-09-29T04:05:03.787Z,3.200000
2022-09-29T04:06:00.751Z,3.200000
2022-09-29T04:07:00.682Z,3.200000
2022-09-29T04:08:00.793Z,3.200000
2022-09-29T04:09:00.705Z,3.200000
2022-09-29T04:10:05.511Z,3.200000
2022-09-29T04:11:00.702Z,3.200000
2022-09-29T04:12:00.832Z,3.200000
2022-09-29T04:13:00.723Z,3.200000
2022-09-29T04:14:00.820Z,3.100000
2022-09-29T04:15:03.670Z,3.100000
2022-09-29T04:16:00.877Z,3.100000
2022-09-29T04:17:00.771Z,3.100000
2022-09-29T04:18:00.829Z,3.100000
2022-09-29T04:19:00.765Z,3.100000
2022-09-29T04:20:05.331Z,3.100000
2022-09-29T04:21:00.927Z,3.100000
2022-09-29T04:22:00.860Z,3.100000
2022-09-29T04:23:00.796Z,3.100000
2022-09-29T04:24:00.871Z,3.100000
2022-09-29T04:25:05.348Z,3.100000
2022-09-29T04:26:01.012Z,3.000000
2022-09-29T04:27:00.837Z,3.000000
2022-09-29T04:28:00.923Z,3.000000
2022-09-29T04:29:00.853Z,3.000000
2022-09-29T04:30:04.207Z,3.000000
2022-09-29T04:31:00.847Z,3.000000
2022-09-29T04:32:01.039Z,3.000000
2022-09-29T04:33:00.894Z,3.000000
2022-09-29T04:34:00.951Z,3.000000
2022-09-29T04:35:04.992Z,3.000000
2022-09-29T04:36:01.077Z,3.000000
2022-09-29T04:37:00.907Z,3.000000
2022-09-29T04:38:01.190Z,3.000000
2022-09-29T04:39:00.921Z,3.000000
2022-09-29T04:40:05.275Z,3.000000
2022-09-29T04:41:00.984Z,3.000000
2022-09-29T04:42:01.020Z,3.000000
2022-09-29T04:43:00.950Z,3.000000
2022-09-29T04:44:01.088Z,3.000000
2022-09-29T04:45:04.111Z,3.000000
2022-09-29T04:46:02.768Z,3.000000
2022-09-29T04:47:00.990Z,3.000000
2022-09-29T04:48:01.096Z,3.000000
2022-09-29T04:49:00.995Z,3.000000
2022-09-29T04:50:11.632Z,3.000000
2022-09-29T04:51:01.008Z,3.000000
2022-09-29T04:52:02.169Z,3.000000
2022-09-29T04:53:01.024Z,3.000000
2022-09-29T04:54:01.120Z,3.000000
2022-09-29T04:55:03.859Z,3.000000
2022-09-29T04:56:01.143Z,3.000000
2022-09-29T04:57:01.068Z,3.000000
2022-09-29T04:58:01.135Z,3.000000
2022-09-29T04:59:01.072Z,2.900000
2022-09-29T05:00:04.752Z,2.900000
2022-09-29T05:01:01.199Z,2.900000
2022-09-29T05:02:01.408Z,2.900000
2022-09-29T05:03:01.168Z,2.900000
2022-09-29T05:04:01.215Z,2.900000
2022-09-29T05:05:04.281Z,2.900000
2022-09-29T05:06:02.124Z,2.900000
2022-09-29T05:07:01.175Z,2.900000
2022-09-29T05:08:01.276Z,2.900000
2022-09-29T05:09:00.199Z,2.900000
2022-09-29T05:10:03.409Z,2.900000
2022-09-29T05:11:00.199Z,2.900000
2022-09-29T05:12:00.282Z,2.900000
2022-09-29T05:13:00.233Z,2.900000
2022-09-29T05:14:00.356Z,2.900000
2022-09-29T05:15:03.026Z,2.900000
2022-09-29T05:16:00.396Z,2.900000
2022-09-29T05:17:00.335Z,2.900000
2022-09-29T05:18:00.336Z,2.900000
2022-09-29T05:19:00.281Z,2.900000
2022-09-29T05:20:32.359Z,2.900000
2022-09-29T05:21:25.922Z,2.900000
2022-09-29T05:22:00.377Z,2.900000
2022-09-29T05:23:00.312Z,2.900000
2022-09-29T05:24:00.392Z,2.900000
2022-09-29T05:25:03.029Z,2.900000
2022-09-29T05:26:00.432Z,2.900000
2022-09-29T05:27:00.357Z,2.800000
2022-09-29T05:28:00.420Z,2.800000
2022-09-29T05:29:00.354Z,2.800000
2022-09-29T05:30:03.736Z,2.800000
2022-09-29T05:31:00.375Z,2.800000
2022-09-29T05:32:00.639Z,2.800000
2022-09-29T05:33:00.397Z,2.800000
2022-09-29T05:34:00.467Z,2.800000
2022-09-29T05:35:04.477Z,2.800000
2022-09-29T05:36:00.464Z,2.800000
2022-09-29T05:37:00.409Z,2.800000
2022-09-29T05:38:00.512Z,2.800000
2022-09-29T05:39:00.425Z,2.800000
2022-09-29T05:40:03.840Z,2.800000
2022-09-29T05:41:00.510Z,2.800000
2022-09-29T05:42:00.521Z,2.800000
2022-09-29T05:43:00.442Z,2.800000
2022-09-29T05:44:00.548Z,2.800000
2022-09-29T05:45:03.518Z,2.700000
2022-09-29T05:46:00.561Z,2.700000
2022-09-29T05:47:00.474Z,2.700000
2022-09-29T05:48:00.573Z,2.700000
2022-09-29T05:49:00.485Z,2.700000
2022-09-29T05:50:12.746Z,2.700000
2022-09-29T05:51:00.509Z,2.700000
2022-09-29T05:52:00.594Z,2.700000
2022-09-29T05:53:00.517Z,2.800000
2022-09-29T05:54:00.594Z,2.800000
2022-09-29T05:55:03.387Z,2.800000
2022-09-29T05:56:00.803Z,2.800000
2022-09-29T05:57:00.544Z,2.800000
2022-09-29T05:58:00.616Z,2.800000
2022-09-29T05:59:00.548Z,2.900000
2022-09-29T06:00:04.982Z,2.900000
2022-09-29T06:01:00.609Z,2.900000
2022-09-29T06:02:00.809Z,2.900000
2022-09-29T06:03:00.608Z,2.900000
2022-09-29T06:04:02.179Z,2.900000
2022-09-29T06:05:12.983Z,2.900000
2022-09-29T06:06:00.670Z,2.900000
2022-09-29T06:07:00.609Z,2.900000
2022-09-29T06:08:00.724Z,2.900000
2022-09-29T06:09:00.639Z,3.000000
2022-09-29T06:10:05.535Z,3.000000
2022-09-29T06:11:00.636Z,3.000000
2022-09-29T06:12:00.714Z,3.000000
2022-09-29T06:13:00.655Z,3.000000
2022-09-29T06:14:00.752Z,3.000000
2022-09-29T06:15:05.296Z,3.100000
2022-09-29T06:16:00.740Z,3.100000
2022-09-29T06:17:00.729Z,3.100000
2022-09-29T06:18:02.135Z,3.100000
2022-09-29T06:19:00.697Z,3.100000
2022-09-29T06:20:12.608Z,3.100000
2022-09-29T06:21:00.715Z,3.100000
2022-09-29T06:22:02.110Z,3.100000
2022-09-29T06:23:00.728Z,3.200000
2022-09-29T06:24:00.818Z,3.200000
2022-09-29T06:25:03.607Z,3.200000
2022-09-29T06:26:00.830Z,3.200000
2022-09-29T06:27:00.767Z,3.200000
2022-09-29T06:28:00.830Z,3.300000
2022-09-29T06:29:00.805Z,3.300000
2022-09-29T06:30:05.096Z,3.300000
2022-09-29T06:31:00.768Z,3.300000
2022-09-29T06:32:01.054Z,3.300000
2022-09-29T06:33:00.809Z,3.400000
2022-09-29T06:34:00.871Z,3.400000
2022-09-29T06:35:03.609Z,3.400000
2022-09-29T06:36:02.146Z,3.400000
2022-09-29T06:37:00.822Z,3.400000
2022-09-29T06:38:00.928Z,3.500000
2022-09-29T06:39:00.840Z,3.500000
2022-09-29T06:40:07.673Z,3.500000
2022-09-29T06:41:00.875Z,3.600000
2022-09-29T06:42:00.924Z,3.600000
2022-09-29T06:43:00.863Z,3.700000
2022-09-29T06:44:00.964Z,3.700000
2022-09-29T06:45:03.763Z,3.700000
2022-09-29T06:46:01.083Z,3.800000
2022-09-29T06:47:00.885Z,3.800000
2022-09-29T06:48:00.967Z,3.800000
2022-09-29T06:49:00.888Z,4.000000
2022-09-29T06:50:13.504Z,4.000000
2022-09-29T06:51:08.300Z,4.000000
2022-09-29T06:52:06.591Z,4.000000
2022-09-29T06:53:03.946Z,4.000000
2022-09-29T06:54:10.832Z,4.000000
2022-09-29T06:55:03.882Z,4.000000
2022-09-29T06:56:01.127Z,4.000000
2022-09-29T06:57:00.954Z,4.000000
2022-09-29T06:58:04.093Z,4.100000
2022-09-29T06:59:00.964Z,4.100000
2022-09-29T07:00:15.685Z,4.100000
2022-09-29T07:01:01.029Z,4.200000
2022-09-29T07:02:01.180Z,4.200000
2022-09-29T07:03:01.027Z,4.200000
2022-09-29T07:04:01.079Z,4.200000
2022-09-29T07:05:04.031Z,4.200000
2022-09-29T07:06:18.943Z,4.300000
2022-09-29T07:07:01.041Z,4.300000
2022-09-29T07:08:01.555Z,4.300000
2022-09-29T07:09:01.067Z,4.400000
2022-09-29T07:10:07.105Z,4.400000
2022-09-29T07:11:01.066Z,4.500000
2022-09-29T07:12:01.155Z,4.500000
2022-09-29T07:13:01.090Z,4.500000
2022-09-29T07:14:01.182Z,4.600000
2022-09-29T07:15:04.164Z,4.600000
2022-09-29T07:16:01.168Z,4.700000
2022-09-29T07:17:01.114Z,4.700000
2022-09-29T07:18:01.229Z,4.800000
2022-09-29T07:19:01.127Z,4.800000
2022-09-29T07:20:04.422Z,4.800000
2022-09-29T07:21:01.155Z,4.800000
2022-09-29T07:22:01.222Z,4.800000
2022-09-29T07:23:01.164Z,4.800000
2022-09-29T07:24:02.403Z,4.900000
2022-09-29T07:25:04.089Z,4.900000
2022-09-29T07:26:01.270Z,5.000000
2022-09-29T07:27:01.202Z,5.000000
2022-09-29T07:28:01.252Z,5.000000
2022-09-29T07:29:00.174Z,5.000000
2022-09-29T07:30:39.115Z,5.000000
2022-09-29T07:31:10.723Z,5.100000
2022-09-29T07:32:00.346Z,5.100000
2022-09-29T07:33:02.369Z,5.100000
2022-09-29T07:34:00.324Z,5.200000
2022-09-29T07:35:03.155Z,5.200000
2022-09-29T07:36:00.308Z,5.500000
2022-09-29T07:37:00.236Z,5.500000
2022-09-29T07:38:00.468Z,5.500000
2022-09-29T07:39:00.250Z,5.600000
2022-09-29T07:40:06.616Z,5.600000
2022-09-29T07:41:00.316Z,5.800000
2022-09-29T07:42:00.333Z,5.800000
2022-09-29T07:43:00.304Z,5.900000
2022-09-29T07:44:00.456Z,5.900000
2022-09-29T07:45:03.147Z,5.900000
2022-09-29T07:46:00.478Z,6.000000
2022-09-29T07:47:00.326Z,6.000000
2022-09-29T07:48:00.410Z,6.000000
2022-09-29T07:49:00.338Z,6.000000
2022-09-29T07:50:05.599Z,6.100000
2022-09-29T07:51:00.365Z,6.100000
2022-09-29T07:52:00.445Z,6.100000
2022-09-29T07:53:00.363Z,6.200000
2022-09-29T07:54:02.085Z,6.200000
2022-09-29T07:55:03.186Z,6.200000
2022-09-29T07:56:00.517Z,6.400000
2022-09-29T07:57:00.404Z,6.400000
2022-09-29T07:58:00.464Z,6.400000
2022-09-29T07:59:00.402Z,6.500000
2022-09-29T08:00:03.632Z,6.500000
2022-09-29T08:01:00.487Z,6.600000
2022-09-29T08:02:00.571Z,6.600000
2022-09-29T08:03:00.466Z,6.600000
2022-09-29T08:04:00.596Z,6.900000
2022-09-29T08:05:07.926Z,6.900000
2022-09-29T08:06:02.105Z,6.900000
2022-09-29T08:07:00.491Z,6.900000
2022-09-29T08:08:00.581Z,6.900000
2022-09-29T08:09:04.023Z,7.000000
2022-09-29T08:10:16.338Z,7.000000
2022-09-29T08:11:00.517Z,7.000000
2022-09-29T08:12:07.731Z,7.100000
2022-09-29T08:13:00.850Z,7.100000
2022-09-29T08:14:02.175Z,7.200000
2022-09-29T08:15:10.726Z,7.200000
2022-09-29T08:16:00.624Z,7.200000
2022-09-29T08:17:00.609Z,7.300000
2022-09-29T08:18:00.631Z,7.300000
2022-09-29T08:19:00.597Z,7.200000
2022-09-29T08:20:04.941Z,7.200000
2022-09-29T08:21:03.665Z,7.200000
2022-09-29T08:22:02.141Z,7.300000
2022-09-29T08:23:00.598Z,7.300000
2022-09-29T08:24:00.766Z,7.200000
2022-09-29T08:25:10.717Z,7.200000
2022-09-29T08:26:01.983Z,7.200000
2022-09-29T08:27:10.514Z,7.300000
2022-09-29T08:28:00.716Z,7.300000
2022-09-29T08:29:06.378Z,7.300000
2022-09-29T08:30:29.462Z,7.500000
2022-09-29T08:31:04.165Z,7.500000
2022-09-29T08:32:00.772Z,7.600000
2022-09-29T08:33:00.693Z,7.600000
2022-09-29T08:34:00.761Z,7.800000
2022-09-29T08:35:03.597Z,7.800000
2022-09-29T08:36:00.820Z,7.900000
2022-09-29T08:37:00.696Z,7.900000
2022-09-29T08:38:00.768Z,7.900000
2022-09-29T08:39:00.797Z,8.300000
2022-09-29T08:40:05.117Z,8.300000
2022-09-29T08:41:00.748Z,8.300000
2022-09-29T08:42:01.012Z,8.100000
2022-09-29T08:43:00.718Z,8.100000
2022-09-29T08:44:00.860Z,8.200000
2022-09-29T08:45:14.038Z,8.200000
2022-09-29T08:46:01.274Z,8.400000
2022-09-29T08:47:08.799Z,8.400000
2022-09-29T08:48:01.959Z,8.400000
2022-09-29T08:49:00.749Z,8.800000
2022-09-29T08:50:12.309Z,8.800000
2022-09-29T08:51:00.804Z,8.800000
2022-09-29T08:52:13.972Z,9.300000
2022-09-29T08:53:00.803Z,9.300000
2022-09-29T08:54:03.582Z,9.300000
2022-09-29T08:55:14.703Z,9.700000
2022-09-29T08:56:00.888Z,9.700000
2022-09-29T08:57:00.856Z,9.900000
2022-09-29T08:58:00.907Z,9.900000
2022-09-29T08:59:00.847Z,10.100000
2022-09-29T09:00:06.434Z,10.100000
2022-09-29T09:01:00.927Z,10.100000
2022-09-29T09:02:00.960Z,10.300000
2022-09-29T09:03:00.889Z,10.300000
2022-09-29T09:04:01.054Z,10.400000
2022-09-29T09:05:05.570Z,10.400000
2022-09-29T09:06:02.617Z,10.400000
2022-09-29T09:07:00.884Z,10.500000
2022-09-29T09:08:04.028Z,10.500000
2022-09-29T09:09:00.918Z,10.400000
2022-09-29T09:10:07.701Z,10.400000
2022-09-29T09:11:00.949Z,10.400000
2022-09-29T09:12:01.335Z,10.800000
2022-09-29T09:13:00.956Z,10.800000
2022-09-29T09:14:01.032Z,10.800000
2022-09-29T09:15:03.888Z,11.100000
2022-09-29T09:16:01.066Z,11.100000
2022-09-29T09:17:01.049Z,11.300000
2022-09-29T09:18:01.097Z,11.300000
2022-09-29T09:19:00.997Z,11.400000
2022-09-29T09:20:05.337Z,11.400000
2022-09-29T09:21:01.027Z,11.400000
2022-09-29T09:22:01.074Z,11.400000
2022-09-29T09:23:01.032Z,11.400000
2022-09-29T09:24:02.212Z,11.400000
2022-09-29T09:25:05.154Z,11.600000
2022-09-29T09:26:01.166Z,11.600000
2022-09-29T09:27:01.067Z,11.600000
2022-09-29T09:28:01.213Z,11.600000
2022-09-29T09:29:01.049Z,11.600000
2022-09-29T09:30:04.155Z,11.500000
2022-09-29T09:31:01.144Z,11.500000
2022-09-29T09:32:01.179Z,11.700000
2022-09-29T09:33:01.125Z,11.700000
2022-09-29T09:34:05.921Z,11.700000
2022-09-29T09:35:17.552Z,11.500000
2022-09-29T09:36:01.205Z,11.500000
2022-09-29T09:37:06.944Z,11.500000
2022-09-29T09:38:02.117Z,11.700000
2022-09-29T09:39:01.154Z,11.700000
2022-09-29T09:40:05.449Z,11.900000
2022-09-29T09:41:01.192Z,11.900000
2022-09-29T09:42:01.234Z,12.200000
2022-09-29T09:43:00.175Z,12.200000
2022-09-29T09:44:00.245Z,12.200000
2022-09-29T09:45:03.091Z,12.400000
2022-09-29T09:46:00.298Z,12.400000
2022-09-29T09:47:00.339Z,12.400000
2022-09-29T09:48:00.306Z,12.700000
2022-09-29T09:49:00.209Z,12.700000
2022-09-29T09:50:06.570Z,12.700000
2022-09-29T09:51:00.237Z,12.800000
2022-09-29T09:52:00.310Z,12.800000
2022-09-29T09:53:00.273Z,12.900000
2022-09-29T09:54:00.314Z,12.900000
2022-09-29T09:55:03.612Z,13.000000
2022-09-29T09:56:00.337Z,13.000000
2022-09-29T09:57:00.285Z,13.000000
2022-09-29T09:58:00.350Z,12.800000
2022-09-29T09:59:00.311Z,12.800000
2022-09-29T10:00:06.785Z,12.800000
2022-09-29T10:01:00.359Z,13.000000
2022-09-29T10:02:00.444Z,13.000000
2022-09-29T10:03:00.348Z,12.900000
2022-09-29T10:04:00.434Z,12.900000
2022-09-29T10:05:06.103Z,13.100000
2022-09-29T10:06:00.408Z,13.100000
2022-09-29T10:07:00.360Z,13.100000
2022-09-29T10:08:00.428Z,13.500000
2022-09-29T10:09:00.422Z,13.500000
2022-09-29T10:10:03.701Z,13.500000
2022-09-29T10:11:00.421Z,13.100000
2022-09-29T10:12:00.456Z,13.100000
2022-09-29T10:13:00.371Z,13.200000
2022-09-29T10:14:00.450Z,13.200000
2022-09-29T10:15:03.375Z,13.200000
2022-09-29T10:16:00.479Z,13.600000
2022-09-29T10:17:00.519Z,13.600000
2022-09-29T10:18:00.507Z,13.800000
2022-09-29T10:19:00.426Z,13.800000
2022-09-29T10:20:03.633Z,13.800000
2022-09-29T10:21:00.460Z,14.100000
2022-09-29T10:22:00.522Z,14.100000
2022-09-29T10:23:00.477Z,14.100000
2022-09-29T10:24:00.543Z,14.100000
2022-09-29T10:25:03.298Z,14.100000
2022-09-29T10:26:00.544Z,14.400000
2022-09-29T10:27:00.500Z,14.400000
2022-09-29T10:28:00.563Z,14.600000
2022-09-29T10:29:00.527Z,14.600000
2022-09-29T10:30:04.835Z,14.600000
2022-09-29T10:31:00.566Z,14.600000
2022-09-29T10:32:00.587Z,14.600000
2022-09-29T10:33:00.539Z,14.500000
2022-09-29T10:34:00.599Z,14.500000
2022-09-29T10:35:03.523Z,14.500000
2022-09-29T10:36:00.669Z,14.700000
2022-09-29T10:37:00.565Z,14.700000
2022-09-29T10:38:00.642Z,14.800000
2022-09-29T10:39:03.248Z,14.800000
2022-09-29T10:40:03.874Z,14.900000
2022-09-29T10:41:00.619Z,14.900000
2022-09-29T10:42:00.676Z,14.900000
2022-09-29T10:43:00.601Z,15.100000
2022-09-29T10:44:00.672Z,15.100000
2022-09-29T10:45:03.340Z,15.100000
2022-09-29T10:46:00.776Z,14.800000
2022-09-29T10:47:01.054Z,14.800000
2022-09-29T10:48:00.824Z,15.200000
2022-09-29T10:49:00.637Z,15.200000
2022-09-29T10:50:07.383Z,15.400000
2022-09-29T10:52:00.907Z,15.400000
2022-09-29T10:53:00.686Z,15.500000
2022-09-29T10:54:01.101Z,15.500000
2022-09-29T10:55:03.839Z,15.500000
2022-09-29T10:56:02.178Z,15.800000
2022-09-29T10:57:00.707Z,15.800000
2022-09-29T10:58:01.037Z,16.100000
2022-09-29T10:59:04.778Z,16.100000
2022-09-29T11:00:17.120Z,16.500000
2022-09-29T11:01:00.787Z,16.500000
2022-09-29T11:02:01.439Z,16.500000
2022-09-29T11:03:00.760Z,16.600000
2022-09-29T11:04:01.677Z,16.600000
2022-09-29T11:05:05.245Z,16.600000
2022-09-29T11:06:01.572Z,16.600000
2022-09-29T11:07:00.787Z,16.600000
2022-09-29T11:08:01.630Z,16.600000
2022-09-29T11:09:00.894Z,17.300000
2022-09-29T11:10:25.966Z,17.300000
2022-09-29T11:11:00.812Z,17.400000
2022-09-29T11:12:04.142Z,17.400000
2022-09-29T11:13:00.825Z,17.500000
2022-09-29T11:14:01.887Z,17.500000
2022-09-29T11:15:03.812Z,17.500000
2022-09-29T11:16:00.938Z,17.200000
2022-09-29T11:17:00.926Z,17.200000
2022-09-29T11:18:00.997Z,17.200000
2022-09-29T11:19:00.868Z,17.000000
2022-09-29T11:20:05.210Z,17.000000
2022-09-29T11:21:00.885Z,17.000000
2022-09-29T11:22:01.048Z,17.000000
2022-09-29T11:23:00.897Z,16.900000
2022-09-29T11:24:01.004Z,16.900000
2022-09-29T11:25:03.965Z,16.900000
2022-09-29T11:26:00.968Z,16.900000
2022-09-29T11:27:00.943Z,16.900000
2022-09-29T11:28:01.016Z,16.900000
2022-09-29T11:29:00.939Z,17.200000
2022-09-29T11:30:09.264Z,17.200000
2022-09-29T11:31:01.030Z,17.200000
2022-09-29T11:32:01.033Z,17.300000
2022-09-29T11:33:00.977Z,17.300000
2022-09-29T11:34:02.617Z,17.300000
2022-09-29T11:35:05.076Z,17.300000
2022-09-29T11:36:01.074Z,17.100000
2022-09-29T11:38:01.102Z,17.100000
2022-09-29T11:39:01.030Z,17.500000
2022-09-29T11:40:05.563Z,17.500000
2022-09-29T11:41:01.020Z,17.600000